Tuskegee, Alabama
Current Conditions -  °F | °C
As of 1:35 PM on Friday 28 Nov 2014 (Local Time) from KAUO Reporting Station
Clear Clear  
Wind Chill: 46°   Ceiling: Unl
Heat Index: 48°   Visibility: 10mi
Dew Point: 16°   Wind: 6mph
Humidity: 27%   Direction: 340°NNW
Pressure: 30.35"   Gusts: NA
Location:  32.42°N, 85.69°W
Report Text: KAUO 281935Z AUTO 34005KT 10SM CLR 09/M09 A3035 RMK AO1
Loading
Personal Weather Stations






























Interactive Weather Map New forecast layout! Learn more

10-Day Weather Forecast

Advertisements
Track Severe Weather on mobile